Time;durP1;ratioP1;P1;durP2;ratioP2;P2;SDS_P1;SDS_P2;PMS_P1;PMS_P2;Temp;Humidity;BMP_temperature;BMP_pressure;BME280_temperature;BME280_humidity;BME280_pressure;Samples;Min_cycle;Max_cycle;Signal;HPM_P1;HPM_P2
2022/06/05 00:02:30;;;;;;;18.42;8.32;;;13.50;99.90;;;;;;5011893;28;20048;-54
2022/06/05 00:05:05;;;;;;;25.75;9.02;;;13.40;99.90;;;;;;5006609;28;20034;-54
2022/06/05 00:07:43;;;;;;;17.63;8.43;;;13.40;99.90;;;;;;5002720;28;20030;-55
2022/06/05 00:10:13;;;;;;;18.63;8.80;;;13.50;99.90;;;;;;5009075;28;20056;-55
2022/06/05 00:12:39;;;;;;;16.27;7.93;;;13.40;99.90;;;;;;5009508;28;20101;-53
2022/06/05 00:15:05;;;;;;;18.60;8.10;;;13.40;99.90;;;;;;5011230;28;20057;-53
2022/06/05 00:17:31;;;;;;;12.82;7.85;;;13.40;99.90;;;;;;5011386;28;20030;-52
2022/06/05 00:19:56;;;;;;;24.42;8.32;;;13.40;99.90;;;;;;5008486;28;20500;-55
2022/06/05 00:22:22;;;;;;;15.35;7.93;;;13.50;99.90;;;;;;5011129;28;20597;-53
2022/06/05 00:24:48;;;;;;;16.08;8.32;;;13.50;99.90;;;;;;5009768;28;20418;-54
2022/06/05 00:27:30;;;;;;;18.83;8.07;;;13.50;99.90;;;;;;5010471;28;20037;-54
2022/06/05 00:30:05;;;;;;;18.70;8.43;;;13.50;99.90;;;;;;5008567;28;20494;-53
2022/06/05 00:32:37;;;;;;;21.23;8.40;;;13.60;99.90;;;;;;5010125;28;20049;-54
2022/06/05 00:35:05;;;;;;;15.13;7.47;;;13.50;99.90;;;;;;5006046;28;20034;-52
2022/06/05 00:37:49;;;;;;;13.38;7.63;;;13.50;99.90;;;;;;5008186;28;20026;-48
2022/06/05 00:40:26;;;;;;;18.00;7.13;;;13.60;99.90;;;;;;5010174;28;20076;-53
2022/06/05 00:42:52;;;;;;;14.60;6.85;;;13.50;99.90;;;;;;5008845;28;20143;-56
2022/06/05 00:45:19;;;;;;;15.82;6.82;;;13.50;99.90;;;;;;5010889;28;20486;-51
2022/06/05 00:47:45;;;;;;;16.60;6.90;;;13.60;99.90;;;;;;5008870;28;20057;-50
2022/06/05 00:50:17;;;;;;;13.52;6.70;;;13.60;99.90;;;;;;5009588;28;20042;-53
2022/06/05 00:52:47;;;;;;;11.15;6.97;;;13.60;99.90;;;;;;5007843;28;20029;-52
2022/06/05 00:55:14;;;;;;;11.73;6.28;;;13.60;99.90;;;;;;5010822;28;20440;-54
2022/06/05 00:57:40;;;;;;;11.48;6.25;;;13.70;99.90;;;;;;5001882;28;20041;-53
2022/06/05 01:00:14;;;;;;;14.40;5.97;;;13.70;99.90;;;;;;5008876;28;20492;-52
2022/06/05 01:02:42;;;;;;;12.77;6.10;;;13.70;99.90;;;;;;5002812;28;20022;-53
2022/06/05 01:05:10;;;;;;;16.98;7.43;;;13.70;99.90;;;;;;5010170;28;20104;-50
2022/06/05 01:07:36;;;;;;;10.27;6.47;;;13.60;99.90;;;;;;5008739;28;20447;-52
2022/06/05 01:10:03;;;;;;;10.15;5.97;;;13.70;99.90;;;;;;5010387;28;20128;-53
2022/06/05 01:12:47;;;;;;;11.82;5.57;;;13.70;99.90;;;;;;5009827;28;20021;-51
2022/06/05 01:15:27;;;;;;;11.93;6.15;;;13.70;99.90;;;;;;5008975;28;20022;-54
2022/06/05 01:18:17;;;;;;;10.20;5.75;;;13.70;99.90;;;;;;5008620;28;20044;-50
2022/06/05 01:21:04;;;;;;;9.70;5.93;;;13.70;99.90;;;;;;5007553;28;20441;-49
2022/06/05 01:23:49;;;;;;;15.50;7.65;;;13.70;99.90;;;;;;5009907;28;20069;-50
2022/06/05 01:26:38;;;;;;;12.20;6.28;;;13.60;99.90;;;;;;5008511;28;20037;-53
2022/06/05 01:29:18;;;;;;;10.50;5.63;;;13.70;99.90;;;;;;5004982;28;20046;-54
2022/06/05 01:32:04;;;;;;;9.38;5.63;;;13.70;99.90;;;;;;5003123;28;20120;-53
2022/06/05 01:34:35;;;;;;;9.30;5.53;;;13.70;99.90;;;;;;5008669;28;20113;-52
2022/06/05 01:37:10;;;;;;;13.07;6.20;;;13.70;99.90;;;;;;5009011;28;20034;-52
2022/06/05 01:39:38;;;;;;;8.45;5.57;;;13.70;99.90;;;;;;4999880;28;20029;-52
2022/06/05 01:42:21;;;;;;;10.48;6.75;;;13.80;99.90;;;;;;5009394;28;20048;-53
2022/06/05 01:44:49;;;;;;;13.00;5.88;;;13.70;99.90;;;;;;5007950;28;20030;-51
2022/06/05 01:47:25;;;;;;;11.25;6.13;;;13.80;99.90;;;;;;5008893;28;20034;-53
2022/06/05 01:50:39;;;;;;;10.70;6.30;;;13.80;99.90;;;;;;5003757;28;20482;-54
2022/06/05 01:53:18;;;;;;;10.05;6.03;;;13.70;99.90;;;;;;4988234;28;20031;-55
2022/06/05 01:56:07;;;;;;;9.88;5.93;;;13.70;99.90;;;;;;4985928;28;20038;-53
2022/06/05 01:58:38;;;;;;;9.05;5.75;;;13.60;99.90;;;;;;4985565;28;20390;-53
2022/06/05 02:01:12;;;;;;;14.85;6.63;;;13.60;99.90;;;;;;4988055;28;20141;-50
2022/06/05 02:03:47;;;;;;;10.13;6.15;;;13.60;99.90;;;;;;4986350;28;20406;-53
2022/06/05 02:06:17;;;;;;;11.02;6.45;;;13.70;99.90;;;;;;4984704;28;20077;-55
2022/06/05 02:09:01;;;;;;;14.65;6.05;;;13.70;99.90;;;;;;4984465;28;20045;-55
2022/06/05 02:11:30;;;;;;;11.10;6.45;;;13.70;99.90;;;;;;4986789;28;20042;-54
2022/06/05 02:14:02;;;;;;;14.57;6.65;;;13.70;99.90;;;;;;4986498;28;20030;-52
2022/06/05 02:16:30;;;;;;;8.90;6.20;;;13.70;99.90;;;;;;4987984;28;20121;-54
2022/06/05 02:18:59;;;;;;;12.13;6.25;;;13.70;99.90;;;;;;4986257;28;20113;-52
2022/06/05 02:21:25;;;;;;;9.55;6.20;;;13.60;99.90;;;;;;4988103;28;20030;-52
2022/06/05 02:23:50;;;;;;;10.65;6.03;;;13.60;99.90;;;;;;4996759;28;20044;-53
2022/06/05 02:26:16;;;;;;;11.35;6.47;;;13.70;99.90;;;;;;5009636;28;20032;-53
2022/06/05 02:28:42;;;;;;;11.65;6.72;;;13.70;99.90;;;;;;5008322;28;20120;-54
2022/06/05 02:31:23;;;;;;;14.40;7.22;;;13.70;99.90;;;;;;5001980;28;20045;-55
2022/06/05 02:34:22;;;;;;;11.77;6.20;;;13.70;99.90;;;;;;5005179;28;20030;-53
2022/06/05 02:37:04;;;;;;;11.18;7.30;;;13.70;99.90;;;;;;5004587;28;20038;-54
2022/06/05 02:39:54;;;;;;;11.05;7.00;;;13.70;99.90;;;;;;5008134;28;20045;-53
2022/06/05 02:42:36;;;;;;;13.35;7.35;;;13.70;99.90;;;;;;5009308;28;20113;-54
2022/06/05 02:45:26;;;;;;;13.40;8.00;;;13.70;99.90;;;;;;5003762;28;20041;-53
2022/06/05 02:48:01;;;;;;;13.73;7.72;;;13.70;99.90;;;;;;5008170;28;20033;-54
2022/06/05 02:50:51;;;;;;;18.25;8.32;;;13.80;99.90;;;;;;5009560;28;20034;-54
2022/06/05 02:53:17;;;;;;;15.15;7.72;;;13.80;99.90;;;;;;4998590;28;20029;-53
2022/06/05 02:55:43;;;;;;;16.13;8.15;;;13.80;99.90;;;;;;5006694;28;20108;-54
2022/06/05 02:58:11;;;;;;;24.40;9.00;;;13.90;99.90;;;;;;5012835;28;20065;-53
2022/06/05 03:00:38;;;;;;;15.77;8.30;;;13.80;99.90;;;;;;5011081;28;20033;-54
2022/06/05 03:05:50;;;;;;;15.23;8.77;;;13.90;99.90;;;;;;5010254;28;20037;-54
2022/06/05 03:08:19;;;;;;;22.27;9.20;;;13.80;99.90;;;;;;5013293;28;20030;-55
2022/06/05 03:10:45;;;;;;;16.48;9.48;;;13.80;99.90;;;;;;5004831;28;20033;-54
2022/06/05 03:13:12;;;;;;;18.48;10.18;;;13.80;99.90;;;;;;5013132;28;20029;-55
2022/06/05 03:15:38;;;;;;;20.77;10.15;;;13.80;99.90;;;;;;5008940;28;20505;-54
2022/06/05 03:18:05;;;;;;;19.92;9.75;;;13.70;99.90;;;;;;5012637;28;20021;-54
2022/06/05 03:20:31;;;;;;;16.67;9.70;;;13.70;99.90;;;;;;5013478;28;20025;-56
2022/06/05 03:22:58;;;;;;;22.85;10.85;;;13.70;99.90;;;;;;5011166;28;20026;-54
2022/06/05 03:25:25;;;;;;;21.25;10.60;;;13.70;99.90;;;;;;5013030;28;20067;-55
2022/06/05 03:27:51;;;;;;;24.05;11.32;;;13.70;99.90;;;;;;5010841;28;20026;-54
2022/06/05 03:30:17;;;;;;;18.77;10.00;;;13.70;99.90;;;;;;5010718;28;20478;-53
2022/06/05 03:32:43;;;;;;;20.42;9.90;;;13.70;99.90;;;;;;5007867;28;20117;-55
2022/06/05 03:35:09;;;;;;;24.27;10.90;;;13.70;99.90;;;;;;5013242;28;20504;-55
2022/06/05 03:37:36;;;;;;;18.88;10.82;;;13.70;99.90;;;;;;5010398;28;20034;-54
2022/06/05 03:40:03;;;;;;;26.23;11.70;;;13.60;99.90;;;;;;5009748;28;20029;-54
2022/06/05 03:42:28;;;;;;;26.55;12.15;;;13.60;99.90;;;;;;5012005;28;20073;-55
2022/06/05 03:44:54;;;;;;;29.95;12.30;;;13.60;99.90;;;;;;5007348;28;20030;-54
2022/06/05 03:47:20;;;;;;;27.25;14.35;;;13.60;99.90;;;;;;5012994;28;20389;-54
2022/06/05 03:49:45;;;;;;;28.13;12.57;;;13.70;99.90;;;;;;5010304;28;20037;-55
2022/06/05 03:52:11;;;;;;;33.78;13.05;;;13.70;99.90;;;;;;5012516;28;20100;-54
2022/06/05 03:54:38;;;;;;;25.63;12.05;;;13.70;99.90;;;;;;5009767;28;20536;-54
2022/06/05 03:57:05;;;;;;;24.08;13.02;;;13.70;99.90;;;;;;5011857;28;20030;-55
2022/06/05 03:59:33;;;;;;;25.52;13.23;;;13.70;99.90;;;;;;5011253;28;20092;-54
2022/06/05 04:01:58;;;;;;;27.55;14.18;;;13.70;99.90;;;;;;5012052;28;20092;-55
2022/06/05 04:04:24;;;;;;;32.53;12.90;;;13.70;99.90;;;;;;5010848;28;20026;-53
2022/06/05 04:06:50;;;;;;;27.70;13.50;;;13.70;99.90;;;;;;5006438;28;20117;-54
2022/06/05 04:09:15;;;;;;;31.17;13.50;;;13.70;99.90;;;;;;5011665;28;20030;-53
2022/06/05 04:11:41;;;;;;;27.73;13.98;;;13.70;99.90;;;;;;5009444;28;20125;-54
2022/06/05 04:14:08;;;;;;;29.95;13.48;;;13.70;99.90;;;;;;5010641;28;20437;-55
2022/06/05 04:16:36;;;;;;;32.47;14.45;;;13.70;99.90;;;;;;5010112;28;20034;-54
2022/06/05 04:19:03;;;;;;;23.13;12.48;;;13.80;99.90;;;;;;5011831;28;20025;-55
2022/06/05 04:21:31;;;;;;;29.95;13.45;;;13.70;99.90;;;;;;5011631;28;20030;-52
2022/06/05 04:23:58;;;;;;;27.85;13.55;;;13.70;99.90;;;;;;5005672;28;20022;-55
2022/06/05 04:26:28;;;;;;;28.67;13.75;;;13.70;99.90;;;;;;5009957;28;20026;-54
2022/06/05 04:28:55;;;;;;;28.90;15.50;;;13.80;99.90;;;;;;5004749;28;20033;-53
2022/06/05 04:31:31;;;;;;;29.50;13.20;;;13.80;99.90;;;;;;5011691;28;20046;-54
2022/06/05 04:33:59;;;;;;;30.88;13.45;;;13.80;99.90;;;;;;5009942;28;20026;-51
2022/06/05 04:36:25;;;;;;;22.02;13.05;;;13.80;99.90;;;;;;5011137;28;20057;-52
2022/06/05 04:38:51;;;;;;;31.15;15.32;;;13.80;99.90;;;;;;5008964;28;20044;-53
2022/06/05 04:41:18;;;;;;;31.40;14.57;;;13.80;99.90;;;;;;5008418;28;20025;-54
2022/06/05 04:43:45;;;;;;;33.78;14.85;;;13.80;99.90;;;;;;5009752;28;20482;-53
2022/06/05 04:46:11;;;;;;;26.80;14.60;;;13.80;99.90;;;;;;5011371;28;20057;-53
2022/06/05 04:48:37;;;;;;;29.80;13.45;;;13.80;99.90;;;;;;5009313;28;20037;-54
2022/06/05 04:51:04;;;;;;;30.52;14.38;;;13.90;99.90;;;;;;5011058;28;20048;-54
2022/06/05 04:53:30;;;;;;;34.55;14.85;;;13.80;99.90;;;;;;5010334;28;20029;-53
2022/06/05 04:55:56;;;;;;;34.03;14.60;;;13.90;99.90;;;;;;5009316;28;20037;-51
2022/06/05 04:58:22;;;;;;;34.10;14.48;;;13.90;99.90;;;;;;5010355;28;20382;-52
2022/06/05 05:00:48;;;;;;;39.80;13.82;;;13.90;99.90;;;;;;5001641;28;20029;-54
2022/06/05 05:03:13;;;;;;;33.55;14.98;;;13.80;99.90;;;;;;5009831;28;20387;-54
2022/06/05 05:05:39;;;;;;;31.60;14.25;;;13.80;99.90;;;;;;5008517;28;20096;-55
2022/06/05 05:08:05;;;;;;;32.30;13.75;;;13.80;99.90;;;;;;5010850;28;20494;-54
2022/06/05 05:10:31;;;;;;;33.08;14.80;;;13.80;99.90;;;;;;5008601;28;20033;-53
2022/06/05 05:12:56;;;;;;;35.88;15.55;;;13.80;99.90;;;;;;5007949;28;20386;-53
2022/06/05 05:15:22;;;;;;;39.15;15.88;;;13.80;99.90;;;;;;5010280;28;20030;-54
2022/06/05 05:17:48;;;;;;;30.63;15.52;;;13.80;99.90;;;;;;5007791;28;20026;-53
2022/06/05 05:20:14;;;;;;;26.13;14.05;;;13.80;99.90;;;;;;5010294;28;20509;-53
2022/06/05 05:22:40;;;;;;;29.55;14.65;;;13.80;99.90;;;;;;5007926;28;20029;-54
2022/06/05 05:25:08;;;;;;;31.80;15.02;;;13.80;99.90;;;;;;5010291;28;20030;-54
2022/06/05 05:27:35;;;;;;;37.53;16.45;;;13.80;99.90;;;;;;5003352;28;20471;-53
2022/06/05 05:30:02;;;;;;;38.83;15.27;;;13.80;99.90;;;;;;5009738;28;20042;-54
2022/06/05 05:32:28;;;;;;;31.30;15.40;;;13.80;99.90;;;;;;5010088;28;20129;-55
2022/06/05 05:34:54;;;;;;;30.17;14.55;;;13.80;99.90;;;;;;5008434;28;20065;-54
2022/06/05 05:37:19;;;;;;;36.45;15.73;;;13.90;99.90;;;;;;5010702;28;20494;-54
2022/06/05 05:42:30;;;;;;;31.23;14.57;;;13.90;99.90;;;;;;5010221;28;20036;-52
2022/06/05 05:44:57;;;;;;;30.55;14.52;;;13.90;99.90;;;;;;5005949;28;20030;-53
2022/06/05 05:47:29;;;;;;;31.30;14.25;;;14.00;99.90;;;;;;5010659;28;20490;-54
2022/06/05 05:50:03;;;;;;;29.52;13.57;;;14.00;99.90;;;;;;5009035;28;20133;-53
2022/06/05 05:52:30;;;;;;;39.88;14.60;;;14.10;99.90;;;;;;5010735;28;20080;-53
2022/06/05 05:54:56;;;;;;;31.77;15.05;;;14.10;99.90;;;;;;5006987;28;20057;-53
2022/06/05 05:57:22;;;;;;;37.05;14.88;;;14.00;99.90;;;;;;5009489;28;20018;-53
2022/06/05 05:59:48;;;;;;;39.00;14.43;;;14.10;99.90;;;;;;5008791;28;20445;-53
2022/06/05 06:02:19;;;;;;;30.52;14.05;;;14.10;99.90;;;;;;5009882;28;20042;-53
2022/06/05 06:04:45;;;;;;;39.75;15.57;;;14.10;99.90;;;;;;4998574;28;20043;-54
2022/06/05 06:07:12;;;;;;;33.33;15.02;;;14.10;99.90;;;;;;5006183;28;20109;-54
2022/06/05 06:09:39;;;;;;;30.27;14.70;;;14.10;99.90;;;;;;5007781;28;20064;-53
2022/06/05 06:12:05;;;;;;;33.50;14.93;;;14.10;99.90;;;;;;5006306;28;20489;-53
2022/06/05 06:14:33;;;;;;;36.53;15.52;;;14.20;99.90;;;;;;5010191;28;20037;-52
2022/06/05 06:16:59;;;;;;;49.58;16.48;;;14.20;99.90;;;;;;5007677;28;20432;-51
2022/06/05 06:19:25;;;;;;;38.40;15.20;;;14.20;99.90;;;;;;5009643;28;20543;-53
2022/06/05 06:21:51;;;;;;;34.30;15.98;;;14.20;99.90;;;;;;5008703;28;20033;-53
2022/06/05 06:24:17;;;;;;;32.90;15.73;;;14.20;99.90;;;;;;5007780;28;20053;-57
2022/06/05 06:26:43;;;;;;;33.58;16.00;;;14.20;99.90;;;;;;5007622;28;20038;-54
2022/06/05 06:29:10;;;;;;;41.25;15.18;;;14.20;99.90;;;;;;5006888;28;20052;-53
2022/06/05 06:31:38;;;;;;;35.90;15.98;;;14.20;99.90;;;;;;5010739;28;20093;-53
2022/06/05 06:34:04;;;;;;;46.85;16.65;;;14.20;99.90;;;;;;5014240;28;20390;-53
2022/06/05 06:36:32;;;;;;;35.33;15.13;;;14.30;99.90;;;;;;5011129;28;20017;-55
2022/06/05 06:38:58;;;;;;;43.42;15.57;;;14.30;99.90;;;;;;5012961;28;20022;-55
2022/06/05 06:41:24;;;;;;;30.80;13.95;;;14.30;99.90;;;;;;5017926;28;20030;-55
2022/06/05 06:43:50;;;;;;;35.75;14.52;;;14.40;99.90;;;;;;5011963;28;20026;-54
2022/06/05 06:46:17;;;;;;;37.22;15.23;;;14.40;99.90;;;;;;5015761;28;20437;-55
2022/06/05 06:48:43;;;;;;;37.75;15.57;;;14.40;99.90;;;;;;5015272;28;20033;-55
2022/06/05 06:51:09;;;;;;;38.65;15.80;;;14.50;99.90;;;;;;5018062;28;20033;-55
2022/06/05 06:53:37;;;;;;;40.05;16.38;;;14.60;99.90;;;;;;5013709;28;20025;-52
2022/06/05 06:56:12;;;;;;;42.03;15.82;;;14.60;99.90;;;;;;5015126;28;20033;-52
2022/06/05 06:58:42;;;;;;;50.47;16.42;;;14.80;99.90;;;;;;5011396;28;20037;-53
2022/06/05 07:01:09;;;;;;;29.48;14.98;;;14.80;99.90;;;;;;5020927;28;20025;-53
2022/06/05 07:03:36;;;;;;;34.95;15.48;;;14.80;99.90;;;;;;5014863;28;20034;-53
2022/06/05 07:06:03;;;;;;;38.47;15.45;;;14.80;99.90;;;;;;5014156;28;20025;-53
2022/06/05 07:08:29;;;;;;;46.03;16.05;;;14.90;99.90;;;;;;5015893;28;20022;-53
2022/06/05 07:10:56;;;;;;;33.92;14.90;;;15.00;99.90;;;;;;5017295;28;20042;-53
2022/06/05 07:13:22;;;;;;;36.85;15.15;;;15.00;99.90;;;;;;5017673;28;20061;-53
2022/06/05 07:15:47;;;;;;;39.85;15.93;;;15.00;99.90;;;;;;5010973;28;20058;-55
2022/06/05 07:18:13;;;;;;;41.63;14.43;;;15.00;99.90;;;;;;5012971;28;20049;-54
2022/06/05 07:20:42;;;;;;;38.50;15.65;;;15.00;99.90;;;;;;5010979;28;20030;-52
2022/06/05 07:23:08;;;;;;;51.45;15.88;;;14.90;99.90;;;;;;5012152;28;20022;-52
2022/06/05 07:25:35;;;;;;;40.60;15.48;;;15.00;99.90;;;;;;5010869;28;20029;-53
2022/06/05 07:28:01;;;;;;;39.47;15.75;;;15.00;99.90;;;;;;5014350;28;20105;-54
2022/06/05 07:30:28;;;;;;;44.15;17.05;;;15.10;99.90;;;;;;5015618;28;20038;-54
2022/06/05 07:32:54;;;;;;;48.47;16.52;;;15.20;99.90;;;;;;5009466;28;20045;-54
2022/06/05 07:35:20;;;;;;;35.92;14.48;;;15.10;99.90;;;;;;5014954;28;20030;-53
2022/06/05 07:37:46;;;;;;;35.97;15.27;;;15.10;99.90;;;;;;5009211;28;20018;-54
2022/06/05 07:40:13;;;;;;;46.60;16.08;;;15.10;99.90;;;;;;5012742;28;20375;-53
2022/06/05 07:42:41;;;;;;;43.22;14.98;;;15.00;99.90;;;;;;5010173;28;20026;-58
2022/06/05 07:45:09;;;;;;;33.35;15.75;;;15.10;99.90;;;;;;5012214;28;20504;-54
2022/06/05 07:47:35;;;;;;;39.97;17.20;;;15.00;99.90;;;;;;5010283;28;20048;-53
2022/06/05 07:50:01;;;;;;;42.72;17.27;;;15.10;99.90;;;;;;5010296;28;20034;-56
2022/06/05 07:55:12;;;;;;;39.72;16.35;;;15.20;99.90;;;;;;5009338;28;20084;-55
2022/06/05 07:57:38;;;;;;;46.83;16.17;;;15.10;99.90;;;;;;5009918;28;20030;-53
2022/06/05 08:00:07;;;;;;;36.30;17.02;;;15.00;99.90;;;;;;5012206;28;20030;-54
2022/06/05 08:02:34;;;;;;;42.70;16.60;;;15.00;99.90;;;;;;5010842;28;20030;-52
2022/06/05 08:05:02;;;;;;;33.70;15.90;;;15.10;99.90;;;;;;5011629;28;20501;-55
2022/06/05 08:07:31;;;;;;;40.78;16.90;;;15.20;99.90;;;;;;5011909;28;20026;-54
2022/06/05 08:09:59;;;;;;;41.38;16.90;;;15.20;99.90;;;;;;5009212;28;20125;-56
2022/06/05 08:12:28;;;;;;;37.88;14.95;;;15.30;99.90;;;;;;5011371;28;20113;-54
2022/06/05 08:14:55;;;;;;;39.95;15.02;;;15.30;99.90;;;;;;5001784;28;20065;-54
2022/06/05 08:17:30;;;;;;;42.70;16.98;;;15.20;99.90;;;;;;5011210;28;20026;-53
2022/06/05 08:19:56;;;;;;;38.95;15.45;;;15.20;99.90;;;;;;5009449;28;20049;-54
2022/06/05 08:22:23;;;;;;;37.72;15.15;;;15.20;99.90;;;;;;5010456;28;20156;-53
2022/06/05 08:24:49;;;;;;;34.65;15.50;;;15.00;99.90;;;;;;5009668;28;20034;-54
2022/06/05 08:27:19;;;;;;;36.33;15.77;;;15.10;99.90;;;;;;5010656;28;20485;-53
2022/06/05 08:29:45;;;;;;;32.80;16.05;;;15.00;99.90;;;;;;5009042;28;20387;-53
2022/06/05 08:32:13;;;;;;;38.38;15.57;;;14.90;99.90;;;;;;5012356;28;20046;-52
2022/06/05 08:34:39;;;;;;;41.10;17.00;;;14.90;99.90;;;;;;5007794;28;20069;-53
2022/06/05 08:42:58;;;;;;;32.88;15.25;;;15.10;99.90;;;;;;5010108;28;20037;-55
2022/06/05 08:45:41;;;;;;;33.08;15.60;;;15.10;99.90;;;;;;5006399;28;20026;-55
2022/06/05 08:48:18;;;;;;;36.65;17.00;;;15.30;99.90;;;;;;5011121;28;20034;-54
2022/06/05 08:50:47;;;;;;;38.67;16.80;;;15.30;99.90;;;;;;5013286;28;20042;-54
2022/06/05 08:53:12;;;;;;;34.90;16.48;;;15.40;99.90;;;;;;5013950;28;20021;-54
2022/06/05 08:55:41;;;;;;;35.72;17.15;;;15.40;99.90;;;;;;5006806;28;20045;-54
2022/06/05 08:58:15;;;;;;;31.92;16.60;;;15.30;99.90;;;;;;5020029;28;20029;-59
2022/06/05 09:00:55;;;;;;;31.90;17.15;;;15.20;99.90;;;;;;5010863;28;20029;-53
2022/06/05 09:03:42;;;;;;;33.42;17.42;;;15.40;99.90;;;;;;5009580;28;20022;-52
2022/06/05 09:06:37;;;;;;;33.53;14.82;;;15.50;99.90;;;;;;5007692;28;20025;-54
2022/06/05 09:09:10;;;;;;;35.08;16.20;;;15.70;99.90;;;;;;5011143;28;20025;-51
2022/06/05 09:11:58;;;;;;;33.30;15.98;;;15.80;99.90;;;;;;5010673;28;20084;-54
2022/06/05 09:14:47;;;;;;;30.95;15.75;;;15.90;99.90;;;;;;5012568;28;20083;-53
2022/06/05 09:17:22;;;;;;;33.03;16.23;;;15.80;99.90;;;;;;5065275;28;20743;-53
2022/06/05 09:19:50;;;;;;;31.20;15.00;;;15.70;99.90;;;;;;5064018;28;20027;-54
2022/06/05 09:22:40;;;;;;;27.92;15.65;;;15.80;99.90;;;;;;5072202;28;20055;-52
2022/06/05 09:25:27;;;;;;;33.78;16.08;;;16.00;99.90;;;;;;5061347;28;20496;-52
2022/06/05 09:28:08;;;;;;;34.15;17.08;;;16.00;99.90;;;;;;5067705;28;20027;-53
2022/06/05 09:30:49;;;;;;;34.90;15.65;;;16.10;99.90;;;;;;5068724;28;20024;-54
2022/06/05 09:33:34;;;;;;;33.75;15.85;;;16.30;99.90;;;;;;5072047;28;20124;-56
2022/06/05 09:36:04;;;;;;;35.28;15.18;;;16.30;99.90;;;;;;5061594;28;20102;-55
2022/06/05 09:38:42;;;;;;;30.83;14.85;;;16.20;99.90;;;;;;5062439;28;20044;-54
2022/06/05 09:41:10;;;;;;;30.35;14.23;;;16.10;99.90;;;;;;5065071;28;20024;-53
2022/06/05 09:44:00;;;;;;;36.17;15.82;;;16.00;99.90;;;;;;5067718;28;20085;-54
2022/06/05 09:46:59;;;;;;;30.05;15.13;;;16.00;99.90;;;;;;5072548;28;20503;-52
2022/06/05 09:49:38;;;;;;;27.92;14.93;;;16.00;99.90;;;;;;5066395;28;20460;-54
2022/06/05 09:52:10;;;;;;;28.63;13.93;;;16.00;99.90;;;;;;5070829;28;20036;-54
2022/06/05 09:54:42;;;;;;;29.73;14.35;;;16.20;99.90;;;;;;5064807;28;20111;-52
2022/06/05 10:00:36;;;;;;;33.58;15.50;;;16.10;99.90;;;;;;5075785;28;20032;-53
2022/06/05 10:03:06;;;;;;;28.05;14.93;;;16.10;99.90;;;;;;5057151;28;20064;-52
2022/06/05 10:05:34;;;;;;;37.22;15.90;;;16.10;99.90;;;;;;5058082;28;20033;-54
2022/06/05 10:08:18;;;;;;;27.65;15.95;;;16.30;99.90;;;;;;5059904;28;20020;-55
2022/06/05 10:10:46;;;;;;;28.33;15.85;;;16.40;99.90;;;;;;5069108;28;20025;-54
2022/06/05 10:13:32;;;;;;;31.48;15.13;;;16.50;99.90;;;;;;5061697;28;20029;-54
2022/06/05 10:16:34;;;;;;;32.72;15.35;;;16.50;99.90;;;;;;5060826;28;20488;-54
2022/06/05 10:19:25;;;;;;;32.10;16.40;;;16.60;99.90;;;;;;5066169;28;20033;-52
2022/06/05 10:22:04;;;;;;;33.03;16.40;;;16.60;99.90;;;;;;5066941;28;20123;-54
2022/06/05 10:25:02;;;;;;;27.52;15.18;;;16.50;99.90;;;;;;5071198;28;20025;-54
2022/06/05 10:27:29;;;;;;;30.92;15.90;;;16.40;99.90;;;;;;5054198;28;20032;-54
2022/06/05 10:29:59;;;;;;;36.97;17.17;;;16.60;99.90;;;;;;5052383;28;20025;-53
2022/06/05 10:32:40;;;;;;;28.58;15.30;;;16.40;99.90;;;;;;5065779;28;20028;-54
2022/06/05 10:35:29;;;;;;;31.08;15.77;;;16.50;99.90;;;;;;5049748;28;20451;-54
2022/06/05 10:38:09;;;;;;;30.15;17.42;;;16.60;99.90;;;;;;5048587;28;20040;-54
2022/06/05 10:40:49;;;;;;;29.83;15.68;;;16.60;99.90;;;;;;5064943;28;20052;-55
2022/06/05 10:43:22;;;;;;;28.33;16.38;;;16.70;99.90;;;;;;5057190;28;20025;-55
2022/06/05 10:45:48;;;;;;;29.80;16.05;;;16.60;99.90;;;;;;5040444;28;20028;-53
2022/06/05 10:48:50;;;;;;;29.60;16.02;;;16.70;99.90;;;;;;5063783;28;20106;-53
2022/06/05 10:51:32;;;;;;;24.92;14.20;;;16.60;99.90;;;;;;5054906;28;20040;-53
2022/06/05 10:54:35;;;;;;;26.63;15.63;;;16.70;99.90;;;;;;5046175;28;20032;-52
2022/06/05 10:57:19;;;;;;;27.85;16.08;;;16.70;99.90;;;;;;5050112;28;20507;-54
2022/06/05 11:00:06;;;;;;;28.13;16.00;;;16.60;99.90;;;;;;5061039;28;20024;-53
2022/06/05 11:02:56;;;;;;;29.10;15.95;;;16.70;99.90;;;;;;5049640;28;20026;-54
2022/06/05 11:05:59;;;;;;;25.42;15.82;;;16.90;99.90;;;;;;5051596;28;20044;-55
2022/06/05 11:08:55;;;;;;;26.15;15.60;;;17.00;99.90;;;;;;5063750;28;20051;-55
2022/06/05 11:14:46;;;;;;;27.40;15.38;;;17.20;99.90;;;;;;5054566;28;20043;-54
2022/06/05 11:17:32;;;;;;;23.15;14.45;;;17.20;99.90;;;;;;5054863;28;20512;-54
2022/06/05 11:20:00;;;;;;;22.83;15.02;;;17.50;99.90;;;;;;5048730;28;20400;-54
2022/06/05 11:22:29;;;;;;;29.50;15.23;;;17.40;99.90;;;;;;5050924;28;20047;-53
2022/06/05 11:25:15;;;;;;;28.92;14.77;;;17.40;99.90;;;;;;5050587;28;21013;-53
2022/06/05 11:27:59;;;;;;;28.73;15.55;;;17.40;99.90;;;;;;5058461;28;20041;-53
2022/06/05 11:30:49;;;;;;;27.88;15.07;;;17.30;99.90;;;;;;5064024;28;20063;-53
2022/06/05 11:33:25;;;;;;;30.23;15.70;;;17.30;99.90;;;;;;5046258;28;20041;-54
2022/06/05 11:36:32;;;;;;;30.55;15.52;;;17.30;99.90;;;;;;5062179;28;20037;-53
2022/06/05 11:39:35;;;;;;;33.30;16.75;;;17.00;99.90;;;;;;5052201;28;20349;-54
2022/06/05 11:42:40;;;;;;;29.88;15.30;;;17.20;99.90;;;;;;5038927;28;20082;-57
2022/06/05 11:45:47;;;;;;;27.52;16.08;;;17.20;99.90;;;;;;5028701;28;20073;-51
2022/06/05 11:48:41;;;;;;;25.48;16.77;;;17.30;99.90;;;;;;5023589;28;20485;-55
2022/06/05 11:51:22;;;;;;;28.27;16.15;;;17.20;99.90;;;;;;5027882;28;20030;-53
2022/06/05 11:54:16;;;;;;;30.52;16.77;;;17.10;99.90;;;;;;5026306;28;20040;-54
2022/06/05 11:57:06;;;;;;;35.03;16.88;;;17.00;99.90;;;;;;5020512;28;20497;-55
2022/06/05 11:59:45;;;;;;;26.17;16.05;;;17.00;99.90;;;;;;5028469;28;20071;-54
2022/06/05 12:02:35;;;;;;;27.10;16.35;;;16.80;99.90;;;;;;5028230;28;20029;-55
2022/06/05 12:05:15;;;;;;;29.40;16.27;;;17.10;99.90;;;;;;5027895;28;20032;-55
2022/06/05 12:07:44;;;;;;;29.33;16.10;;;17.20;99.90;;;;;;5036550;28;20446;-52
2022/06/05 12:10:28;;;;;;;27.63;16.15;;;17.40;99.90;;;;;;5026475;28;20421;-52
2022/06/05 12:13:21;;;;;;;32.28;16.35;;;17.50;99.90;;;;;;5036324;28;20029;-55
2022/06/05 12:16:03;;;;;;;27.05;16.55;;;17.50;99.90;;;;;;5031428;28;20124;-55
2022/06/05 12:18:49;;;;;;;28.67;16.10;;;17.60;99.90;;;;;;5027017;28;20033;-54
2022/06/05 12:21:26;;;;;;;27.67;16.77;;;17.60;99.90;;;;;;5051948;28;20055;-55
2022/06/05 12:24:36;;;;;;;28.13;14.70;;;17.60;99.90;;;;;;5046504;28;20033;-55
2022/06/05 12:27:13;;;;;;;23.35;15.05;;;17.60;99.90;;;;;;5046426;28;20118;-53
2022/06/05 12:29:54;;;;;;;21.00;14.20;;;17.90;99.90;;;;;;5048991;28;20036;-54
2022/06/05 12:32:41;;;;;;;24.15;13.70;;;18.30;99.90;;;;;;5051167;28;20479;-54
2022/06/05 12:35:33;;;;;;;23.40;13.07;;;18.50;99.90;;;;;;5040881;28;20078;-52
2022/06/05 12:38:16;;;;;;;22.80;13.57;;;18.30;99.90;;;;;;5046677;28;20056;-52
2022/06/05 12:41:07;;;;;;;23.30;14.43;;;18.40;99.90;;;;;;5046358;28;20477;-54
2022/06/05 12:44:10;;;;;;;21.23;13.93;;;18.30;99.90;;;;;;5058283;28;20063;-54
2022/06/05 12:46:56;;;;;;;22.60;13.68;;;18.20;99.90;;;;;;5044468;28;20472;-55
2022/06/05 12:49:33;;;;;;;23.60;14.50;;;18.20;99.90;;;;;;5050676;28;20128;-55
2022/06/05 12:52:01;;;;;;;28.52;14.15;;;18.40;99.90;;;;;;5056004;28;20021;-53
2022/06/05 12:54:41;;;;;;;24.38;14.70;;;18.00;99.90;;;;;;5055093;28;20037;-55
2022/06/05 12:57:15;;;;;;;25.50;15.05;;;17.80;99.90;;;;;;5047467;28;20056;-50
2022/06/05 12:59:52;;;;;;;24.60;14.80;;;17.80;99.90;;;;;;5048736;28;20032;-51
2022/06/05 13:02:28;;;;;;;23.67;15.32;;;17.80;99.90;;;;;;5056307;28;20075;-55
2022/06/05 13:05:35;;;;;;;25.15;15.55;;;18.00;99.90;;;;;;5050133;28;20028;-52
2022/06/05 13:08:00;;;;;;;23.42;15.52;;;17.80;99.90;;;;;;5042777;28;20028;-54
2022/06/05 13:10:35;;;;;;;24.20;15.65;;;17.80;99.90;;;;;;5045117;28;20120;-53
2022/06/05 13:13:26;;;;;;;26.92;15.90;;;17.90;99.90;;;;;;5046782;28;20381;-52
2022/06/05 13:15:57;;;;;;;24.50;15.85;;;17.80;99.90;;;;;;5047321;28;20059;-55
2022/06/05 13:18:32;;;;;;;26.73;16.25;;;18.00;99.90;;;;;;5051438;28;20033;-55
2022/06/05 13:21:17;;;;;;;30.52;16.77;;;17.90;99.90;;;;;;5047126;28;20029;-53
2022/06/05 13:24:14;;;;;;;30.33;17.05;;;18.00;99.90;;;;;;5046180;28;21128;-52
2022/06/05 13:27:12;;;;;;;26.67;16.73;;;18.00;99.90;;;;;;5046147;28;20029;-51